createdAt,value
2018-09-03T00:01:20.293Z,6.40
2018-09-03T00:03:48.963Z,6.53
2018-09-03T00:06:17.600Z,5.77
2018-09-03T00:08:46.383Z,5.40
2018-09-03T00:11:15.045Z,8.37
2018-09-03T00:13:43.797Z,3.77
2018-09-03T00:16:12.466Z,5.83
2018-09-03T00:18:41.424Z,6.13
2018-09-03T00:21:10.080Z,12.97
2018-09-03T00:23:38.682Z,5.77
2018-09-03T00:26:07.320Z,3.83
2018-09-03T00:28:36.059Z,6.27
2018-09-03T00:31:10.089Z,6.27
2018-09-03T00:33:44.130Z,5.80
2018-09-03T00:36:18.242Z,3.83
2018-09-03T00:38:52.177Z,3.83
2018-09-03T00:41:26.085Z,6.23
2018-09-03T00:44:00.078Z,6.57
2018-09-03T00:46:34.061Z,5.90
2018-09-03T00:49:02.734Z,3.93
2018-09-03T00:51:31.579Z,4.50
2018-09-03T00:54:00.387Z,3.50
2018-09-03T00:56:29.139Z,5.50
2018-09-03T00:58:57.936Z,15.30
2018-09-03T01:01:26.653Z,6.80
2018-09-03T01:03:55.338Z,4.40
2018-09-03T01:06:23.902Z,4.57
2018-09-03T01:08:52.517Z,8.63
2018-09-03T01:11:24.582Z,6.77
2018-09-03T01:13:53.982Z,3.33
2018-09-03T01:16:22.568Z,7.60
2018-09-03T01:18:54.898Z,5.40
2018-09-03T01:21:26.292Z,7.30
2018-09-03T01:23:55.563Z,5.40
2018-09-03T01:26:24.161Z,4.47
2018-09-03T01:28:53.075Z,5.23
2018-09-03T01:31:22.316Z,5.70
2018-09-03T01:33:52.186Z,7.67
2018-09-03T01:36:21.201Z,6.77
2018-09-03T01:38:49.956Z,5.50
2018-09-03T01:41:19.417Z,4.20
2018-09-03T01:43:48.548Z,4.53
2018-09-03T01:46:17.378Z,4.97
2018-09-03T01:48:46.107Z,5.63
2018-09-03T01:51:14.779Z,6.00
2018-09-03T01:53:43.589Z,4.60
2018-09-03T01:56:12.210Z,3.80
2018-09-03T01:58:40.873Z,5.77
2018-09-03T02:01:09.541Z,6.67
2018-09-03T02:03:38.113Z,5.80
2018-09-03T02:06:07.129Z,4.60
2018-09-03T02:08:35.919Z,4.87
2018-09-03T02:11:04.607Z,5.87
2018-09-03T02:13:34.072Z,9.27
2018-09-03T02:16:02.763Z,5.60
2018-09-03T02:18:31.486Z,5.87
2018-09-03T02:21:00.258Z,6.47
2018-09-03T02:23:28.919Z,10.97
2018-09-03T02:25:57.653Z,5.80
2018-09-03T02:28:26.321Z,7.63
2018-09-03T02:30:55.033Z,4.63
2018-09-03T02:33:23.812Z,6.07
2018-09-03T02:35:52.498Z,7.37
2018-09-03T02:38:21.302Z,3.60
2018-09-03T02:40:49.976Z,4.77
2018-09-03T02:43:18.692Z,3.70
2018-09-03T02:45:47.442Z,7.70
2018-09-03T02:48:16.143Z,6.73
2018-09-03T02:50:44.812Z,4.40
2018-09-03T02:53:13.488Z,7.23
2018-09-03T02:55:42.271Z,6.00
2018-09-03T02:58:10.881Z,7.33
2018-09-03T03:00:39.619Z,6.20
2018-09-03T03:03:08.252Z,4.33
2018-09-03T03:05:37.024Z,6.30
2018-09-03T03:08:06.482Z,5.10
2018-09-03T03:10:35.099Z,7.70
2018-09-03T03:13:03.886Z,7.47
2018-09-03T03:15:32.554Z,7.30
2018-09-03T03:18:01.279Z,6.23
2018-09-03T03:20:29.899Z,6.10
2018-09-03T03:22:58.593Z,5.93
2018-09-03T03:25:27.280Z,6.50
2018-09-03T03:27:55.949Z,5.87
2018-09-03T03:30:24.756Z,7.53
2018-09-03T03:32:53.474Z,6.57
2018-09-03T03:35:22.171Z,9.17
2018-09-03T03:37:50.857Z,4.83
2018-09-03T03:40:20.052Z,15.60
2018-09-03T03:42:48.786Z,6.47
2018-09-03T03:45:17.429Z,5.20
2018-09-03T03:47:46.048Z,7.43
2018-09-03T03:50:14.650Z,5.77
2018-09-03T03:52:44.468Z,6.60
2018-09-03T03:55:13.239Z,7.63
2018-09-03T03:57:42.368Z,11.00
2018-09-03T04:00:10.973Z,6.90
2018-09-03T04:02:39.623Z,5.97
2018-09-03T04:05:08.347Z,7.80
2018-09-03T04:07:36.992Z,8.43
2018-09-03T04:10:06.236Z,6.03
2018-09-03T04:12:34.869Z,7.40
2018-09-03T04:15:03.640Z,8.17
2018-09-03T04:17:32.270Z,6.00
2018-09-03T04:20:03.492Z,6.77
2018-09-03T04:22:33.194Z,5.67
2018-09-03T04:25:02.635Z,5.80
2018-09-03T04:27:31.338Z,6.10
2018-09-03T04:29:59.925Z,6.53
2018-09-03T04:32:28.588Z,8.50
2018-09-03T04:34:57.268Z,5.97
2018-09-03T04:37:26.884Z,8.03
2018-09-03T04:39:56.178Z,8.27
2018-09-03T04:42:25.070Z,5.53
2018-09-03T04:44:53.740Z,8.37
2018-09-03T04:47:22.407Z,10.40
2018-09-03T04:49:51.103Z,6.70
2018-09-03T04:52:19.813Z,6.80
2018-09-03T04:54:48.790Z,8.03
2018-09-03T04:57:17.597Z,6.17
2018-09-03T04:59:47.022Z,9.60
2018-09-03T05:02:16.162Z,8.80
2018-09-03T05:04:47.730Z,8.77
2018-09-03T05:07:17.008Z,8.87
2018-09-03T05:09:46.813Z,8.70
2018-09-03T05:12:15.751Z,8.10
2018-09-03T05:14:44.308Z,7.03
2018-09-03T05:17:18.660Z,7.40
2018-09-03T05:19:47.478Z,8.40
2018-09-03T05:22:17.061Z,13.37
2018-09-03T05:24:47.122Z,7.50
2018-09-03T05:27:15.836Z,7.90
2018-09-03T05:29:44.727Z,7.77
2018-09-03T05:32:13.798Z,11.60
2018-09-03T05:34:42.606Z,9.13
2018-09-03T05:37:11.404Z,7.13
2018-09-03T05:39:40.638Z,7.50
2018-09-03T05:42:09.440Z,10.40
2018-09-03T05:44:44.066Z,12.87
2018-09-03T05:47:13.188Z,12.03
2018-09-03T05:49:41.970Z,7.73
2018-09-03T05:52:15.763Z,9.67
2018-09-03T05:54:46.157Z,8.50
2018-09-03T05:57:14.986Z,18.63
2018-09-03T05:59:43.802Z,10.10
2018-09-03T06:02:12.738Z,9.77
2018-09-03T06:04:41.566Z,12.60
2018-09-03T06:07:10.395Z,11.43
2018-09-03T06:09:39.774Z,11.90
2018-09-03T06:12:09.055Z,10.10
2018-09-03T06:14:37.987Z,8.93
2018-09-03T06:17:07.750Z,10.03
2018-09-03T06:19:36.444Z,11.97
2018-09-03T06:22:05.403Z,9.90
2018-09-03T06:24:34.402Z,12.00
2018-09-03T06:27:03.882Z,10.00
2018-09-03T06:29:32.766Z,10.33
2018-09-03T06:32:02.232Z,13.30
2018-09-03T06:34:32.017Z,14.33
2018-09-03T06:37:00.979Z,9.43
2018-09-03T06:39:29.729Z,13.70
2018-09-03T06:41:58.535Z,18.90
2018-09-03T06:44:27.241Z,15.90
2018-09-03T06:46:56.083Z,9.30
2018-09-03T06:49:24.806Z,11.90
2018-09-03T06:51:53.475Z,9.07
2018-09-03T06:54:22.305Z,16.57
2018-09-03T06:56:50.931Z,12.80
2018-09-03T06:59:19.623Z,13.03
2018-09-03T07:01:48.310Z,9.80
2018-09-03T07:04:17.074Z,13.30
2018-09-03T07:06:45.894Z,10.90
2018-09-03T07:09:14.670Z,12.80
2018-09-03T07:11:43.561Z,13.97
2018-09-03T07:14:12.351Z,10.07
2018-09-03T07:16:41.101Z,13.40
2018-09-03T07:19:09.857Z,18.50
2018-09-03T07:21:38.533Z,12.40
2018-09-03T07:24:08.302Z,14.20
2018-09-03T07:26:37.501Z,12.73
2018-09-03T07:29:06.241Z,13.00
2018-09-03T07:31:34.946Z,10.87
2018-09-03T07:34:03.805Z,11.73
2018-09-03T07:36:32.412Z,11.20
2018-09-03T07:39:01.094Z,11.03
2018-09-03T07:41:29.777Z,16.13
2018-09-03T07:43:58.607Z,12.10
2018-09-03T07:46:27.383Z,12.23
2018-09-03T07:48:56.134Z,10.30
2018-09-03T07:51:24.887Z,14.13
2018-09-03T07:53:53.680Z,17.07
2018-09-03T07:56:22.454Z,13.37
2018-09-03T07:58:51.049Z,12.50
2018-09-03T08:01:19.796Z,12.00
2018-09-03T08:03:48.645Z,11.73
2018-09-03T08:06:18.241Z,13.03
2018-09-03T08:08:47.005Z,10.70
2018-09-03T08:11:15.835Z,13.60
2018-09-03T08:13:44.507Z,14.83
2018-09-03T08:16:13.429Z,11.27
2018-09-03T08:18:42.364Z,9.77
2018-09-03T08:21:11.341Z,11.37
2018-09-03T08:23:40.060Z,9.73
2018-09-03T08:26:08.876Z,9.70
2018-09-03T08:28:37.542Z,17.83
2018-09-03T08:31:06.461Z,11.67
2018-09-03T08:33:35.213Z,10.83
2018-09-03T08:36:04.048Z,16.17
2018-09-03T08:38:32.773Z,16.03
2018-09-03T08:41:01.582Z,14.17
2018-09-03T08:43:30.296Z,9.97
2018-09-03T08:45:59.014Z,10.47
2018-09-03T08:48:27.696Z,11.47
2018-09-03T08:50:56.469Z,11.47
2018-09-03T08:53:25.143Z,16.53
2018-09-03T08:55:53.837Z,14.07
2018-09-03T08:58:22.477Z,11.43
2018-09-03T09:00:51.200Z,12.10
2018-09-03T09:03:25.090Z,13.30
2018-09-03T09:05:53.874Z,15.90
2018-09-03T09:08:22.556Z,11.40
2018-09-03T09:10:51.357Z,10.57
2018-09-03T09:13:20.446Z,9.80
2018-09-03T09:15:49.913Z,14.03
2018-09-03T09:18:18.671Z,11.67
2018-09-03T09:20:47.427Z,14.67
2018-09-03T09:23:16.424Z,13.27
2018-09-03T09:25:45.048Z,13.53
2018-09-03T09:28:14.290Z,13.20
2018-09-03T09:30:43.122Z,13.07
2018-09-03T09:33:11.825Z,10.53
2018-09-03T09:35:40.511Z,12.13
2018-09-03T09:38:09.424Z,20.10
2018-09-03T09:40:38.442Z,11.93
2018-09-03T09:43:07.273Z,11.53
2018-09-03T09:45:35.872Z,9.87
2018-09-03T09:48:04.575Z,17.40
2018-09-03T09:50:33.234Z,10.90
2018-09-03T09:53:01.900Z,10.77
2018-09-03T09:55:30.612Z,11.40
2018-09-03T09:57:59.490Z,11.40
2018-09-03T10:00:33.691Z,11.30
2018-09-03T10:03:02.381Z,11.97
2018-09-03T10:05:31.040Z,12.53
2018-09-03T10:07:59.622Z,11.70
2018-09-03T10:10:28.302Z,12.53
2018-09-03T10:12:57.038Z,12.93
2018-09-03T10:15:25.656Z,13.47
2018-09-03T10:17:54.251Z,15.90
2018-09-03T10:20:23.496Z,13.00
2018-09-03T10:22:52.253Z,16.03
2018-09-03T10:25:21.162Z,16.40
2018-09-03T10:27:49.854Z,12.30
2018-09-03T10:30:19.249Z,12.20
2018-09-03T10:32:48.267Z,15.00
2018-09-03T10:35:17.153Z,14.83
2018-09-03T10:37:45.830Z,14.27
2018-09-03T10:40:14.730Z,15.80
2018-09-03T10:42:44.400Z,15.37
2018-09-03T10:45:13.570Z,15.53
2018-09-03T10:47:42.353Z,16.33
2018-09-03T10:50:11.218Z,18.30
2018-09-03T10:52:40.010Z,18.10
2018-09-03T10:55:08.754Z,18.80
2018-09-03T10:57:38.502Z,15.90
2018-09-03T11:00:07.257Z,20.40
2018-09-03T11:02:36.003Z,15.40
2018-09-03T11:05:05.044Z,20.67
2018-09-03T11:07:33.788Z,20.83
2018-09-03T11:10:02.510Z,21.50
2018-09-03T11:12:31.200Z,18.53
2018-09-03T11:14:59.844Z,22.97
2018-09-03T11:17:28.521Z,19.90
2018-09-03T11:19:59.676Z,17.43
2018-09-03T11:22:28.434Z,18.77
2018-09-03T11:24:58.358Z,20.63
2018-09-03T11:27:27.222Z,19.07
2018-09-03T11:29:55.973Z,21.07
2018-09-03T11:32:24.804Z,22.93
2018-09-03T11:34:53.382Z,19.87
2018-09-03T11:37:22.123Z,19.43
2018-09-03T11:39:50.868Z,26.13
2018-09-03T11:42:19.532Z,18.50
2018-09-03T11:44:48.392Z,19.37
2018-09-03T11:47:17.363Z,20.47
2018-09-03T11:49:46.270Z,19.43
2018-09-03T11:52:15.030Z,20.80
2018-09-03T11:54:43.707Z,20.27
2018-09-03T11:57:12.483Z,20.23
2018-09-03T11:59:41.307Z,19.03
2018-09-03T12:02:10.161Z,22.23
2018-09-03T12:04:38.844Z,19.23
2018-09-03T12:07:07.697Z,20.33
2018-09-03T12:09:36.434Z,20.10
2018-09-03T12:12:05.178Z,21.43
2018-09-03T12:14:37.592Z,24.77
2018-09-03T12:17:06.913Z,21.97
2018-09-03T12:19:35.570Z,26.70
2018-09-03T12:22:04.370Z,24.40
2018-09-03T12:24:33.243Z,24.20
2018-09-03T12:27:01.907Z,26.87
2018-09-03T12:29:31.091Z,22.53
2018-09-03T12:32:00.763Z,22.53
2018-09-03T12:34:29.537Z,21.43
2018-09-03T12:36:58.280Z,24.47
2018-09-03T12:39:26.974Z,22.97
2018-09-03T12:41:55.642Z,23.47
2018-09-03T12:44:24.435Z,26.33
2018-09-03T12:46:53.159Z,21.03
2018-09-03T12:49:22.004Z,22.47
2018-09-03T12:51:50.902Z,21.67
2018-09-03T12:54:19.717Z,29.40
2018-09-03T12:56:48.402Z,23.97
2018-09-03T12:59:17.106Z,25.67
2018-09-03T13:01:45.847Z,26.50
2018-09-03T13:04:14.590Z,29.57
2018-09-03T13:06:43.224Z,27.53
2018-09-03T13:09:12.132Z,26.90
2018-09-03T13:11:40.849Z,26.50
2018-09-03T13:14:09.497Z,27.57
2018-09-03T13:16:38.216Z,26.50
2018-09-03T13:19:07.158Z,30.43
2018-09-03T13:21:36.014Z,28.43
2018-09-03T13:24:04.817Z,24.53
2018-09-03T13:26:34.354Z,27.20
2018-09-03T13:29:02.948Z,25.87
2018-09-03T13:31:31.639Z,27.20
2018-09-03T13:34:00.358Z,22.53
2018-09-03T13:36:29.097Z,24.77
2018-09-03T13:38:58.515Z,24.60
2018-09-03T13:41:27.219Z,24.97
2018-09-03T13:43:55.860Z,25.17
2018-09-03T13:46:24.662Z,27.30
2018-09-03T13:48:53.360Z,24.73
2018-09-03T13:51:22.060Z,28.50
2018-09-03T13:53:51.140Z,24.20
2018-09-03T13:56:19.906Z,25.03
2018-09-03T13:58:49.111Z,25.57
2018-09-03T14:01:18.331Z,25.87
2018-09-03T14:03:47.008Z,26.27
2018-09-03T14:06:16.013Z,26.70
2018-09-03T14:08:44.790Z,22.70
2018-09-03T14:11:13.594Z,30.10
2018-09-03T14:13:43.611Z,26.87
2018-09-03T14:16:12.353Z,27.60
2018-09-03T14:18:40.989Z,22.13
2018-09-03T14:21:09.755Z,28.67
2018-09-03T14:23:38.724Z,25.10
2018-09-03T14:26:07.439Z,29.53
2018-09-03T14:28:36.202Z,37.90
2018-09-03T14:31:05.827Z,23.43
2018-09-03T14:33:34.418Z,22.17
2018-09-03T14:36:03.122Z,27.10
2018-09-03T14:38:31.971Z,30.47
2018-09-03T14:41:00.683Z,24.60
2018-09-03T14:43:29.478Z,26.90
2018-09-03T14:45:58.160Z,23.57
2018-09-03T14:48:26.949Z,24.00
2018-09-03T14:50:55.655Z,24.23
2018-09-03T14:53:24.469Z,27.43
2018-09-03T14:55:53.340Z,23.50
2018-09-03T14:58:22.259Z,26.40
2018-09-03T15:00:51.119Z,25.57
2018-09-03T15:03:19.921Z,26.30
2018-09-03T15:05:48.564Z,24.57
2018-09-03T15:08:17.425Z,22.80
2018-09-03T15:10:46.120Z,23.13
2018-09-03T15:13:14.761Z,23.37
2018-09-03T15:15:43.454Z,22.30
2018-09-03T15:18:12.223Z,22.57
2018-09-03T15:20:41.180Z,27.23
2018-09-03T15:23:09.943Z,21.70
2018-09-03T15:25:38.670Z,24.20
2018-09-03T15:28:07.670Z,28.90
2018-09-03T15:30:36.669Z,24.60
2018-09-03T15:33:05.578Z,27.43
2018-09-03T15:35:35.135Z,29.23
2018-09-03T15:38:03.933Z,23.90
2018-09-03T15:40:32.623Z,24.03
2018-09-03T15:43:01.430Z,28.70
2018-09-03T15:45:30.434Z,22.27
2018-09-03T15:47:59.174Z,22.00
2018-09-03T15:50:27.877Z,22.47
2018-09-03T15:52:56.650Z,22.80
2018-09-03T15:55:25.401Z,22.97
2018-09-03T15:57:53.991Z,22.63
2018-09-03T16:00:22.743Z,26.53
2018-09-03T16:02:51.583Z,22.10
2018-09-03T16:05:20.395Z,33.43
2018-09-03T16:07:49.117Z,26.10
2018-09-03T16:10:17.894Z,28.63
2018-09-03T16:12:46.531Z,27.57
2018-09-03T16:15:15.495Z,26.93
2018-09-03T16:17:44.126Z,21.97
2018-09-03T16:20:12.968Z,24.33
2018-09-03T16:22:42.037Z,31.60
2018-09-03T16:25:16.661Z,23.50
2018-09-03T16:27:46.401Z,24.13
2018-09-03T16:30:15.010Z,22.30
2018-09-03T16:32:43.876Z,27.60
2018-09-03T16:35:14.514Z,23.97
2018-09-03T16:37:43.416Z,23.30
2018-09-03T16:40:12.968Z,23.43
2018-09-03T16:42:42.118Z,23.70
2018-09-03T16:45:10.804Z,28.10
2018-09-03T16:47:39.550Z,26.30
2018-09-03T16:50:08.483Z,27.00
2018-09-03T16:52:39.533Z,21.67
2018-09-03T16:55:09.107Z,27.20
2018-09-03T16:57:37.888Z,28.07
2018-09-03T17:00:10.470Z,30.90
2018-09-03T17:02:39.567Z,30.00
2018-09-03T17:05:08.314Z,31.00
2018-09-03T17:07:53.103Z,25.23
2018-09-03T17:10:27.311Z,30.63
2018-09-03T17:12:57.079Z,32.10
2018-09-03T17:15:32.557Z,26.23
2018-09-03T17:18:01.330Z,27.20
2018-09-03T17:20:37.017Z,34.70
2018-09-03T17:23:14.088Z,33.93
2018-09-03T17:26:07.933Z,25.77
2018-09-03T17:28:55.089Z,27.17
2018-09-03T17:31:51.384Z,37.47
2018-09-03T17:34:20.132Z,30.00
2018-09-03T17:37:01.838Z,27.60
2018-09-03T17:42:17.041Z,27.80
2018-09-03T17:45:10.720Z,27.00
2018-09-03T17:47:51.977Z,30.63
2018-09-03T17:50:37.830Z,30.27
2018-09-03T17:53:06.566Z,35.00
2018-09-03T17:55:55.219Z,33.27
2018-09-03T17:58:28.292Z,35.40
2018-09-03T18:00:57.288Z,28.87
2018-09-03T18:03:29.657Z,35.37
2018-09-03T18:05:58.444Z,26.97
2018-09-03T18:08:27.816Z,30.30
2018-09-03T18:10:58.120Z,28.53
2018-09-03T18:13:26.743Z,31.23
2018-09-03T18:15:55.968Z,27.53
2018-09-03T18:18:24.590Z,28.73
2018-09-03T18:20:54.530Z,31.70
2018-09-03T18:23:26.063Z,27.77
2018-09-03T18:25:55.310Z,31.07
2018-09-03T18:28:24.182Z,27.03
2018-09-03T18:30:53.091Z,27.47
2018-09-03T18:33:25.153Z,27.37
2018-09-03T18:35:53.936Z,33.43
2018-09-03T18:38:24.379Z,34.30
2018-09-03T18:40:54.272Z,35.23
2018-09-03T18:43:25.126Z,33.80
2018-09-03T18:45:53.964Z,29.00
2018-09-03T18:48:22.646Z,34.20
2018-09-03T18:50:57.333Z,32.20
2018-09-03T18:53:26.091Z,33.10
2018-09-03T18:55:54.751Z,32.10
2018-09-03T18:58:23.447Z,34.23
2018-09-03T19:00:53.581Z,31.77
2018-09-03T19:03:22.455Z,31.00
2018-09-03T19:05:54.381Z,34.97
2018-09-03T19:08:24.316Z,36.30
2018-09-03T19:10:55.172Z,28.37
2018-09-03T19:13:25.013Z,30.63
2018-09-03T19:15:56.595Z,35.63
2018-09-03T19:18:25.275Z,36.67
2018-09-03T19:20:53.982Z,30.73
2018-09-03T19:23:24.948Z,34.33
2018-09-03T19:25:53.854Z,34.20
2018-09-03T19:28:22.650Z,29.60
2018-09-03T19:30:54.152Z,36.13
2018-09-03T19:33:22.920Z,33.93
2018-09-03T19:35:54.306Z,33.13
2018-09-03T19:38:23.034Z,29.67
2018-09-03T19:40:52.255Z,30.93
2018-09-03T19:43:23.639Z,35.40
2018-09-03T19:45:52.369Z,26.30
2018-09-03T19:48:20.993Z,31.20
2018-09-03T19:50:49.765Z,30.90
2018-09-03T19:53:19.128Z,34.53
2018-09-03T19:56:19.889Z,31.13
2018-09-03T19:58:48.867Z,31.37
2018-09-03T20:01:17.562Z,28.77
2018-09-03T20:03:47.143Z,37.10
2018-09-03T20:06:16.027Z,31.07
2018-09-03T20:08:44.794Z,30.40
2018-09-03T20:11:13.657Z,31.90
2018-09-03T20:13:42.588Z,40.40
2018-09-03T20:16:11.361Z,29.80
2018-09-03T20:18:41.647Z,33.77
2018-09-03T20:21:10.611Z,32.77
2018-09-03T20:23:39.510Z,31.77
2018-09-03T20:26:07.996Z,28.23
2018-09-03T20:28:36.915Z,37.17
2018-09-03T20:31:05.797Z,31.60
2018-09-03T20:33:34.448Z,36.23
2018-09-03T20:36:04.254Z,26.70
2018-09-03T20:38:32.842Z,38.40
2018-09-03T20:41:01.968Z,28.00
2018-09-03T20:43:30.605Z,32.47
2018-09-03T20:45:59.214Z,29.10
2018-09-03T20:48:27.901Z,30.60
2018-09-03T20:50:56.653Z,30.50
2018-09-03T20:53:25.340Z,30.17
2018-09-03T20:55:54.177Z,30.63
2018-09-03T20:58:22.898Z,34.47
2018-09-03T21:00:51.664Z,27.97
2018-09-03T21:03:20.434Z,43.90
2018-09-03T21:05:49.120Z,31.20
2018-09-03T21:08:17.771Z,35.63
2018-09-03T21:10:46.885Z,34.40
2018-09-03T21:13:15.646Z,36.57
2018-09-03T21:15:45.378Z,34.20
2018-09-03T21:18:14.162Z,42.50
2018-09-03T21:20:42.979Z,38.10
2018-09-03T21:23:11.834Z,40.07
2018-09-03T21:25:40.761Z,38.77
2018-09-03T21:28:09.557Z,39.30
2018-09-03T21:30:38.357Z,41.77
2018-09-03T21:33:07.100Z,38.20
2018-09-03T21:35:35.694Z,39.70
2018-09-03T21:38:04.379Z,38.37
2018-09-03T21:40:33.118Z,43.83
2018-09-03T21:43:01.768Z,38.30
2018-09-03T21:45:30.425Z,42.83
2018-09-03T21:47:59.357Z,41.50
2018-09-03T21:50:28.022Z,46.60
2018-09-03T21:52:56.692Z,42.50
2018-09-03T21:55:25.357Z,41.93
2018-09-03T21:57:54.015Z,46.13
2018-09-03T22:00:22.750Z,44.30
2018-09-03T22:02:51.779Z,50.37
2018-09-03T22:05:20.482Z,53.53
2018-09-03T22:07:49.258Z,49.80
2018-09-03T22:10:17.918Z,51.33
2018-09-03T22:12:46.770Z,50.20
2018-09-03T22:15:15.555Z,46.73
2018-09-03T22:17:44.285Z,48.37
2018-09-03T22:20:12.966Z,52.50
2018-09-03T22:22:41.782Z,50.07
2018-09-03T22:25:10.647Z,56.03
2018-09-03T22:27:39.459Z,48.80
2018-09-03T22:30:08.346Z,56.70
2018-09-03T22:32:37.017Z,53.17
2018-09-03T22:35:05.785Z,50.70
2018-09-03T22:37:34.402Z,53.70
2018-09-03T22:40:03.213Z,51.97
2018-09-03T22:42:31.819Z,57.07
2018-09-03T22:45:00.506Z,47.63
2018-09-03T22:47:29.090Z,56.50
2018-09-03T22:49:57.752Z,53.83
2018-09-03T22:52:26.366Z,57.50
2018-09-03T22:54:55.482Z,53.60
2018-09-03T22:57:24.120Z,63.87
2018-09-03T22:59:52.734Z,62.70
2018-09-03T23:02:22.225Z,60.03
2018-09-03T23:04:51.081Z,56.97
2018-09-03T23:07:20.280Z,61.63
2018-09-03T23:09:49.103Z,54.20
2018-09-03T23:12:17.749Z,59.50
2018-09-03T23:14:46.378Z,68.43
2018-09-03T23:17:15.089Z,62.20
2018-09-03T23:19:43.924Z,64.23
2018-09-03T23:22:12.606Z,61.23
2018-09-03T23:24:41.170Z,68.73
2018-09-03T23:27:09.860Z,63.47
2018-09-03T23:29:38.520Z,57.27
2018-09-03T23:32:07.126Z,58.97
2018-09-03T23:34:35.732Z,56.43
2018-09-03T23:37:04.481Z,56.77
2018-09-03T23:39:33.061Z,63.73
2018-09-03T23:42:01.771Z,60.10
2018-09-03T23:44:30.380Z,62.47
2018-09-03T23:46:59.058Z,62.17
2018-09-03T23:49:27.650Z,67.00
2018-09-03T23:51:56.419Z,65.47
2018-09-03T23:54:25.077Z,56.70
2018-09-03T23:56:53.974Z,62.90
2018-09-03T23:59:22.824Z,55.63
